Hanston, Kansas
Current Conditions -  °F | °C
As of 11:52 AM on Sunday 21 Dec 2014 (Local Time) from KDDC Reporting Station
Overcast Overcast  
Wind Chill: 34°   Ceiling: 1300
Heat Index: 42°   Visibility: 7mi
Dew Point: 37°   Wind: 17mph
Humidity: 82%   Direction: 190°S
Pressure: 29.76"   Gusts: NA
Location:  38.12°N, 99.71°W
Report Text: KDDC 211752Z AUTO 19015KT 7SM OVC013 06/03 A2976 RMK AO2 SLP086 T00560028 10056 20033 58025
Loading
Personal Weather Stations






























Interactive Weather Map New forecast layout! Learn more

10-Day Weather Forecast

Advertisements
Track Severe Weather on mobile